createdAt,value
2019-04-30T00:00:34.620Z,90.05
2019-04-30T00:01:58.922Z,90.24
2019-04-30T00:03:15.836Z,90.05
2019-04-30T00:04:35.080Z,90.24
2019-04-30T00:05:53.722Z,90.9
2019-04-30T00:07:05.613Z,90.71
2019-04-30T00:08:23.312Z,90.9
2019-04-30T00:09:42.045Z,91.38
2019-04-30T00:10:57.957Z,90.62
2019-04-30T00:12:08.092Z,91.09
2019-04-30T00:13:23.224Z,91
2019-04-30T00:14:41.289Z,91.09
2019-04-30T00:15:58.483Z,91.56
2019-04-30T00:17:15.732Z,91.28
2019-04-30T00:18:35.784Z,91.28
2019-04-30T00:20:07.722Z,91.09
2019-04-30T00:21:21.264Z,91.94
2019-04-30T00:22:39.163Z,91.47
2019-04-30T00:24:00.691Z,91.75
2019-04-30T00:25:24.784Z,91.94
2019-04-30T00:26:39.806Z,92.14
2019-04-30T00:28:00.173Z,91.85
2019-04-30T00:29:17.247Z,92.04
2019-04-30T00:30:43.863Z,92.52
2019-04-30T00:32:07.852Z,92.61
2019-04-30T00:33:25.612Z,92.8
2019-04-30T00:34:41.696Z,92.52
2019-04-30T00:35:58.850Z,92.42
2019-04-30T00:37:18.742Z,92.99
2019-04-30T00:38:34.172Z,92.8
2019-04-30T00:39:55.383Z,93.56
2019-04-30T00:41:10.180Z,93.61
2019-04-30T00:42:28.626Z,93.23
2019-04-30T00:43:47.784Z,93.04
2019-04-30T00:45:04.635Z,93.46
2019-04-30T00:46:24.890Z,93.32
2019-04-30T00:47:44.363Z,93.41
2019-04-30T00:49:09.719Z,93.23
2019-04-30T00:50:38.676Z,93.51
2019-04-30T00:51:54.582Z,93.51
2019-04-30T00:53:16.489Z,93.61
2019-04-30T00:54:31.647Z,93.61
2019-04-30T00:55:48.481Z,93.61
2019-04-30T00:57:08.918Z,93.7
2019-04-30T00:58:30.866Z,93.32
2019-04-30T00:59:44.503Z,93.41
2019-04-30T01:00:59.678Z,93.51
2019-04-30T01:02:18.097Z,93.8
2019-04-30T01:03:44.290Z,93.8
2019-04-30T01:05:09.062Z,93.51
2019-04-30T01:06:28.563Z,93.89
2019-04-30T01:07:48.495Z,93.8
2019-04-30T01:09:09.904Z,94.27
2019-04-30T01:10:28.264Z,93.99
2019-04-30T01:11:44.671Z,94.08
2019-04-30T01:13:11.857Z,94.18
2019-04-30T01:14:28.073Z,94.46
2019-04-30T01:15:43.859Z,94.08
2019-04-30T01:16:59.376Z,94.37
2019-04-30T01:18:16.022Z,94.46
2019-04-30T01:19:35.134Z,94.37
2019-04-30T01:20:58.367Z,94.46
2019-04-30T01:22:19.329Z,94.08
2019-04-30T01:23:41.612Z,94.56
2019-04-30T01:25:14.522Z,94.56
2019-04-30T01:26:31.820Z,94.27
2019-04-30T01:27:49.084Z,94.37
2019-04-30T01:29:02.970Z,94.27
2019-04-30T01:30:18.509Z,94.08
2019-04-30T01:31:40.754Z,94.46
2019-04-30T01:33:00.909Z,94.46
2019-04-30T01:34:16.270Z,94.84
2019-04-30T01:35:33.695Z,95.12
2019-04-30T01:36:52.141Z,94.93
2019-04-30T01:38:09.046Z,95.31
2019-04-30T01:39:23.628Z,95.6
2019-04-30T01:40:38.382Z,95.41
2019-04-30T01:41:53.566Z,95.41
2019-04-30T01:43:13.142Z,95.41
2019-04-30T01:44:39.086Z,95.22
2019-04-30T01:45:56.844Z,95.41
2019-04-30T01:47:27.567Z,95.22
2019-04-30T01:48:39.296Z,95.88
2019-04-30T01:50:00.810Z,95.88
2019-04-30T01:51:18.272Z,95.69
2019-04-30T01:52:38.821Z,95.79
2019-04-30T01:53:48.577Z,96.03
2019-04-30T01:54:58.679Z,95.98
2019-04-30T01:56:09.108Z,96.45
2019-04-30T01:57:19.327Z,96.22
2019-04-30T01:58:33.414Z,96.64
2019-04-30T01:59:44.586Z,96.17
2019-04-30T02:00:55.942Z,96.31
2019-04-30T02:02:08.497Z,96.69
2019-04-30T02:03:19.301Z,96.41
2019-04-30T02:04:31.395Z,96.5
2019-04-30T02:05:42.189Z,96.41
2019-04-30T02:06:52.790Z,96.5
2019-04-30T02:08:04.432Z,96.41
2019-04-30T02:09:15.774Z,96.59
2019-04-30T02:10:28.398Z,96.22
2019-04-30T02:11:38.875Z,96.88
2019-04-30T02:12:49.305Z,96.88
2019-04-30T02:14:01.458Z,97.16
2019-04-30T02:15:12.014Z,96.88
2019-04-30T02:16:23.577Z,96.88
2019-04-30T02:17:33.990Z,96.5
2019-04-30T02:18:43.662Z,96.69
2019-04-30T02:19:59.471Z,96.69
2019-04-30T02:21:11.407Z,96.59
2019-04-30T02:22:22.393Z,96.88
2019-04-30T02:23:36.251Z,96.88
2019-04-30T02:24:48.584Z,96.78
2019-04-30T02:25:58.956Z,97.45
2019-04-30T02:27:09.202Z,96.69
2019-04-30T02:28:21.189Z,96.97
2019-04-30T02:29:32.166Z,97.35
2019-04-30T02:30:42.966Z,97.45
2019-04-30T02:31:55.835Z,97.54
2019-04-30T02:33:09.542Z,97.35
2019-04-30T02:34:24.711Z,97.45
2019-04-30T02:35:40.472Z,97.54
2019-04-30T02:36:52.914Z,97.64
2019-04-30T02:38:04.490Z,97.64
2019-04-30T02:39:15.324Z,97.64
2019-04-30T02:40:30.144Z,97.54
2019-04-30T02:41:45.066Z,97.45
2019-04-30T02:43:03.457Z,97.64
2019-04-30T02:44:14.620Z,97.26
2019-04-30T02:45:29.832Z,97.64
2019-04-30T02:46:43.130Z,97.54
2019-04-30T02:47:55.626Z,98.49
2019-04-30T02:49:07.048Z,98.49
2019-04-30T02:50:24.273Z,98.49
2019-04-30T02:51:39.701Z,98.49
2019-04-30T02:52:52.987Z,98.02
2019-04-30T02:54:09.714Z,98.11
2019-04-30T02:55:25.842Z,98.39
2019-04-30T02:56:39.788Z,98.11
2019-04-30T02:57:52.296Z,98.39
2019-04-30T02:59:06.341Z,98.21
2019-04-30T03:00:20.327Z,98.3
2019-04-30T03:01:35.471Z,98.39
2019-04-30T03:02:50.235Z,98.58
2019-04-30T03:04:03.030Z,98.49
2019-04-30T03:05:16.056Z,98.68
2019-04-30T03:06:30.258Z,98.39
2019-04-30T03:07:43.304Z,98.49
2019-04-30T03:09:00.964Z,98.87
2019-04-30T03:10:13.157Z,98.87
2019-04-30T03:11:25.118Z,98.96
2019-04-30T03:12:40.241Z,98.49
2019-04-30T03:13:52.827Z,98.39
2019-04-30T03:15:04.648Z,98.96
2019-04-30T03:16:17.227Z,98.77
2019-04-30T03:17:29.365Z,98.49
2019-04-30T03:18:39.589Z,98.96
2019-04-30T03:19:52.710Z,98.77
2019-04-30T03:21:09.747Z,98.77
2019-04-30T03:22:22.821Z,98.77
2019-04-30T03:23:35.066Z,98.68
2019-04-30T03:24:46.567Z,98.68
2019-04-30T03:25:59.694Z,98.3
2019-04-30T03:27:15.203Z,98.39
2019-04-30T03:28:30.056Z,98.87
2019-04-30T03:29:43.116Z,98.77
2019-04-30T03:31:04.192Z,98.87
2019-04-30T03:32:22.007Z,98.87
2019-04-30T03:33:45.568Z,98.87
2019-04-30T03:35:05.966Z,98.54
2019-04-30T03:36:25.346Z,98.96
2019-04-30T03:37:42.135Z,98.72
2019-04-30T03:38:54.620Z,98.77
2019-04-30T03:40:10.260Z,99.15
2019-04-30T03:41:25.437Z,98.82
2019-04-30T03:42:44.207Z,98.63
2019-04-30T03:43:54.725Z,98.44
2019-04-30T03:45:34.843Z,98.63
2019-04-30T03:46:45.560Z,98.82
2019-04-30T03:48:00.116Z,98.72
2019-04-30T03:49:15.666Z,98.16
2019-04-30T03:50:31.353Z,98.91
2019-04-30T03:52:06.328Z,98.54
2019-04-30T03:53:22.792Z,98.82
2019-04-30T03:54:34.995Z,99.1
2019-04-30T03:55:50.505Z,98.82
2019-04-30T03:57:03.032Z,98.91
2019-04-30T03:58:15.876Z,98.72
2019-04-30T03:59:30.065Z,99.1
2019-04-30T04:00:46.634Z,98.91
2019-04-30T04:01:59.515Z,99.1
2019-04-30T04:03:15.274Z,98.82
2019-04-30T04:04:27.792Z,99.01
2019-04-30T04:05:39.888Z,99.2
2019-04-30T04:06:52.332Z,98.72
2019-04-30T04:08:03.082Z,99.01
2019-04-30T04:09:14.584Z,99.2
2019-04-30T04:10:29.660Z,99.29
2019-04-30T04:11:42.001Z,99.29
2019-04-30T04:12:53.781Z,99.2
2019-04-30T04:14:04.763Z,98.82
2019-04-30T04:15:16.826Z,99.1
2019-04-30T04:16:29.307Z,99.1
2019-04-30T04:17:44.054Z,99.29
2019-04-30T04:18:55.749Z,98.91
2019-04-30T04:20:13.218Z,99.67
2019-04-30T04:21:25.649Z,99.48
2019-04-30T04:22:40.078Z,98.82
2019-04-30T04:23:52.549Z,98.91
2019-04-30T04:25:03.097Z,98.72
2019-04-30T04:26:20.209Z,98.91
2019-04-30T04:27:32.956Z,98.82
2019-04-30T04:28:45.981Z,99.1
2019-04-30T04:29:57.116Z,98.82
2019-04-30T04:31:09.536Z,98.82
2019-04-30T04:32:26.182Z,98.35
2019-04-30T04:33:39.496Z,98.72
2019-04-30T04:34:55.201Z,98.35
2019-04-30T04:36:09.140Z,98.35
2019-04-30T04:37:19.745Z,98.63
2019-04-30T04:38:32.965Z,98.25
2019-04-30T04:39:45.554Z,98.44
2019-04-30T04:40:59.921Z,99.29
2019-04-30T04:42:15.433Z,98.72
2019-04-30T04:43:27.205Z,98.16
2019-04-30T04:44:39.876Z,98.54
2019-04-30T04:45:52.905Z,98.35
2019-04-30T04:47:04.759Z,98.35
2019-04-30T04:48:25.735Z,98.06
2019-04-30T04:49:39.757Z,98.16
2019-04-30T04:50:56.300Z,97.87
2019-04-30T04:52:10.174Z,98.21
2019-04-30T04:53:24.163Z,97.64
2019-04-30T04:54:35.760Z,97.45
2019-04-30T04:55:49.849Z,97.73
2019-04-30T04:57:19.018Z,97.83
2019-04-30T04:58:33.466Z,97.64
2019-04-30T04:59:45.501Z,97.3
2019-04-30T05:00:59.211Z,97.35
2019-04-30T05:02:12.347Z,97.45
2019-04-30T05:03:24.747Z,97.54
2019-04-30T05:04:35.179Z,97.73
2019-04-30T05:05:49.506Z,97.92
2019-04-30T05:07:04.459Z,97.54
2019-04-30T05:08:14.434Z,97.54
2019-04-30T05:09:26.151Z,97.35
2019-04-30T05:10:35.981Z,97.64
2019-04-30T05:11:48.621Z,97.35
2019-04-30T05:12:59.204Z,97.45
2019-04-30T05:14:11.168Z,97.16
2019-04-30T05:15:21.997Z,97.45
2019-04-30T05:16:32.415Z,97.45
2019-04-30T05:17:44.096Z,97.07
2019-04-30T05:18:54.715Z,97.35
2019-04-30T05:20:06.583Z,96.5
2019-04-30T05:21:18.767Z,97.16
2019-04-30T05:22:29.328Z,96.5
2019-04-30T05:23:42.396Z,96.5
2019-04-30T05:24:54.414Z,96.41
2019-04-30T05:26:06.180Z,96.5
2019-04-30T05:27:19.784Z,96.59
2019-04-30T05:28:30.201Z,96.12
2019-04-30T05:29:42.142Z,96.03
2019-04-30T05:30:52.779Z,96.31
2019-04-30T05:32:04.591Z,96.03
2019-04-30T05:33:14.791Z,96.31
2019-04-30T05:34:26.031Z,96.22
2019-04-30T05:35:36.234Z,95.79
2019-04-30T05:36:46.323Z,95.74
2019-04-30T05:37:56.690Z,95.88
2019-04-30T05:39:08.657Z,96.08
2019-04-30T05:40:19.025Z,95.69
2019-04-30T05:41:29.002Z,95.41
2019-04-30T05:42:41.018Z,95.79
2019-04-30T05:43:52.544Z,95.6
2019-04-30T05:45:04.349Z,95.41
2019-04-30T05:46:16.569Z,95.5
2019-04-30T05:47:28.692Z,95.41
2019-04-30T05:48:39.679Z,95.41
2019-04-30T05:49:51.448Z,95.79
2019-04-30T05:51:01.650Z,95.79
2019-04-30T05:52:14.114Z,95.31
2019-04-30T05:53:25.258Z,95.41
2019-04-30T05:54:36.300Z,95.6
2019-04-30T05:55:46.702Z,94.93
2019-04-30T05:56:56.560Z,94.46
2019-04-30T05:58:09.176Z,94.56
2019-04-30T05:59:22.663Z,93.99
2019-04-30T06:00:34.253Z,94.18
2019-04-30T06:01:51.095Z,93.32
2019-04-30T06:03:02.121Z,93.65
2019-04-30T06:04:12.404Z,92.8
2019-04-30T06:05:22.353Z,92.71
2019-04-30T06:06:36.042Z,92.52
2019-04-30T06:07:46.543Z,92.42
2019-04-30T06:09:14.551Z,92.14
2019-04-30T06:10:42.050Z,91.85
2019-04-30T06:11:54.542Z,91.85
2019-04-30T06:13:06.699Z,91.56
2019-04-30T06:14:18.555Z,91.75
2019-04-30T06:15:29.041Z,91.85
2019-04-30T06:16:39.377Z,91.38
2019-04-30T06:18:10.696Z,91.19
2019-04-30T06:19:23.262Z,91.66
2019-04-30T06:20:34.246Z,91.28
2019-04-30T06:21:45.969Z,91.38
2019-04-30T06:23:09.480Z,91.28
2019-04-30T06:24:21.119Z,90.14
2019-04-30T06:25:59.133Z,89.86
2019-04-30T06:27:19.185Z,89.72
2019-04-30T06:28:29.272Z,89.9
2019-04-30T06:29:39.111Z,88.76
2019-04-30T06:30:49.230Z,88.29
2019-04-30T06:32:01.107Z,88.67
2019-04-30T06:33:14.142Z,88.1
2019-04-30T06:34:24.644Z,88.67
2019-04-30T06:35:34.708Z,88.01
2019-04-30T06:36:53.828Z,88.2
2019-04-30T06:38:04.622Z,87.62
2019-04-30T06:39:16.261Z,87.24
2019-04-30T06:40:26.462Z,85.91
2019-04-30T06:41:36.978Z,85.82
2019-04-30T06:42:49.503Z,85.06
2019-04-30T06:44:03.378Z,84.59
2019-04-30T06:45:14.681Z,84.97
2019-04-30T06:46:28.518Z,84.34
2019-04-30T06:47:38.892Z,84.25
2019-04-30T06:48:51.566Z,84.06
2019-04-30T06:50:03.594Z,83.87
2019-04-30T06:51:14.696Z,83.2
2019-04-30T06:52:26.535Z,82.73
2019-04-30T06:53:37.020Z,82.92
2019-04-30T06:54:46.842Z,81.49
2019-04-30T06:55:58.962Z,81.49
2019-04-30T06:57:09.670Z,80.93
2019-04-30T06:58:23.079Z,79.88
2019-04-30T06:59:34.464Z,80.16
2019-04-30T07:00:45.019Z,79.97
2019-04-30T07:01:58.954Z,80.07
2019-04-30T07:03:09.569Z,80.64
2019-04-30T07:04:22.013Z,79.79
2019-04-30T07:05:31.999Z,79.79
2019-04-30T07:06:50.365Z,78.93
2019-04-30T07:08:12.045Z,78.83
2019-04-30T07:09:26.644Z,78.17
2019-04-30T07:11:11.176Z,77.45
2019-04-30T07:12:30.647Z,77.17
2019-04-30T07:13:44.162Z,76.5
2019-04-30T07:14:56.837Z,76.31
2019-04-30T07:16:08.311Z,76.69
2019-04-30T07:17:19.507Z,76.5
2019-04-30T07:18:30.991Z,76.4
2019-04-30T07:19:59.639Z,76.03
2019-04-30T07:21:11.196Z,76.12
2019-04-30T07:22:41.865Z,75.45
2019-04-30T07:24:09.365Z,75.07
2019-04-30T07:25:21.885Z,76.03
2019-04-30T07:26:32.214Z,75.4
2019-04-30T07:27:44.132Z,74.54
2019-04-30T07:28:59.784Z,73.69
2019-04-30T07:30:12.745Z,73.49
2019-04-30T07:31:25.422Z,72.45
2019-04-30T07:32:38.678Z,72.74
2019-04-30T07:33:54.176Z,72.83
2019-04-30T07:35:04.822Z,71.97
2019-04-30T07:36:16.815Z,71.69
2019-04-30T07:37:49.465Z,71.97
2019-04-30T07:39:09.970Z,71.59
2019-04-30T07:40:21.861Z,72.16
2019-04-30T07:41:33.715Z,71.69
2019-04-30T07:42:49.129Z,71.59
2019-04-30T07:43:59.422Z,71.69
2019-04-30T07:45:09.714Z,71.31
2019-04-30T07:46:22.551Z,71.59
2019-04-30T07:47:32.740Z,71.69
2019-04-30T07:48:44.624Z,71.72
2019-04-30T07:50:00.622Z,71.12
2019-04-30T07:51:15.162Z,71.12
2019-04-30T07:52:55.101Z,71.69
2019-04-30T07:54:18.818Z,70.58
2019-04-30T07:55:29.483Z,70.68
2019-04-30T07:56:43.386Z,71.15
2019-04-30T07:57:55.546Z,70.97
2019-04-30T07:59:06.522Z,70.2
2019-04-30T08:00:19.302Z,70.1
2019-04-30T08:01:31.912Z,70.3
2019-04-30T08:03:03.491Z,70.39
2019-04-30T08:04:18.412Z,70.2
2019-04-30T08:05:29.828Z,69.25
2019-04-30T08:06:40.154Z,69.76
2019-04-30T08:07:52.861Z,69.95
2019-04-30T08:09:38.573Z,69.76
2019-04-30T08:10:53.434Z,69.76
2019-04-30T08:12:04.635Z,69.19
2019-04-30T08:13:35.902Z,69.38
2019-04-30T08:14:52.182Z,67.86
2019-04-30T08:16:02.421Z,67.67
2019-04-30T08:17:12.711Z,67.13
2019-04-30T08:18:24.184Z,66.75
2019-04-30T08:19:34.767Z,66.46
2019-04-30T08:20:48.986Z,66.46
2019-04-30T08:22:00.949Z,67.61
2019-04-30T08:23:33.798Z,66.94
2019-04-30T08:24:48.942Z,66.46
2019-04-30T08:25:58.913Z,66.08
2019-04-30T08:27:09.686Z,66.56
2019-04-30T08:28:21.077Z,65.32
2019-04-30T08:29:33.147Z,65.89
2019-04-30T08:30:44.523Z,65.99
2019-04-30T08:31:56.538Z,65.26
2019-04-30T08:33:09.207Z,64.59
2019-04-30T08:34:20.063Z,64.5
2019-04-30T08:35:32.186Z,63.83
2019-04-30T08:36:42.774Z,64.5
2019-04-30T08:37:54.181Z,64.78
2019-04-30T08:39:04.395Z,63.35
2019-04-30T08:40:14.937Z,64.12
2019-04-30T08:41:26.726Z,64.02
2019-04-30T08:42:40.421Z,63.73
2019-04-30T08:43:52.509Z,63.92
2019-04-30T08:45:02.830Z,63.07
2019-04-30T08:46:14.489Z,63.2
2019-04-30T08:47:28.953Z,62.68
2019-04-30T08:48:53.744Z,62.05
2019-04-30T08:50:05.406Z,61.76
2019-04-30T08:51:18.911Z,62.05
2019-04-30T08:52:33.359Z,61.29
2019-04-30T08:53:44.894Z,60.75
2019-04-30T08:54:56.391Z,59.7
2019-04-30T08:56:25.277Z,59.06
2019-04-30T08:57:39.077Z,58.39
2019-04-30T08:58:51.431Z,56.8
2019-04-30T09:00:04.604Z,57.02
2019-04-30T09:01:19.658Z,55.61
2019-04-30T09:02:29.099Z,54.68
2019-04-30T09:03:39.320Z,52.03
2019-04-30T09:04:49.536Z,49.76
2019-04-30T09:06:02.961Z,48.35
2019-04-30T09:07:14.341Z,46.34
2019-04-30T09:08:24.767Z,46.65
2019-04-30T09:09:34.791Z,44.83
2019-04-30T09:10:51.639Z,44.56
2019-04-30T09:12:02.457Z,43.73
2019-04-30T09:13:12.829Z,44.78
2019-04-30T09:14:24.681Z,42.81
2019-04-30T09:15:35.162Z,41.49
2019-04-30T09:16:45.695Z,38.62
2019-04-30T09:18:07.116Z,38.04
2019-04-30T09:19:23.745Z,37.49
2019-04-30T09:20:35.179Z,36.82
2019-04-30T09:21:48.900Z,36.83
2019-04-30T09:22:59.594Z,36.64
2019-04-30T09:24:11.909Z,34.92
2019-04-30T09:25:21.805Z,33.69
2019-04-30T09:26:33.695Z,33.59
2019-04-30T09:27:44.459Z,32.36
2019-04-30T09:28:56.123Z,31.77
2019-04-30T09:30:10.050Z,31.96
2019-04-30T09:31:22.303Z,33.21
2019-04-30T09:32:32.665Z,32.84
2019-04-30T09:33:44.181Z,30.34
2019-04-30T09:34:54.611Z,31.21
2019-04-30T09:36:06.417Z,30.16
2019-04-30T09:37:18.448Z,31.03
2019-04-30T09:38:29.067Z,29.69
2019-04-30T09:39:39.344Z,28.64
2019-04-30T09:40:50.654Z,28.45
2019-04-30T09:42:02.376Z,28.85
2019-04-30T09:43:14.499Z,28.28
2019-04-30T09:44:26.327Z,27.81
2019-04-30T09:45:38.556Z,26.95
2019-04-30T09:46:48.955Z,26.76
2019-04-30T09:47:59.205Z,27.34
2019-04-30T09:49:09.614Z,26.66
2019-04-30T09:50:21.275Z,25.89
2019-04-30T09:51:33.684Z,26.77
2019-04-30T09:52:45.867Z,24.92
2019-04-30T09:54:03.358Z,27.24
2019-04-30T09:55:19.325Z,26.48
2019-04-30T09:56:29.472Z,25.61
2019-04-30T09:57:41.347Z,25.61
2019-04-30T09:58:51.779Z,24.08
2019-04-30T10:00:03.084Z,24.08
2019-04-30T10:01:14.676Z,25.14
2019-04-30T10:02:29.043Z,24.95
2019-04-30T10:03:41.189Z,24.27
2019-04-30T10:04:56.406Z,23.88
2019-04-30T10:06:09.052Z,24.46
2019-04-30T10:07:19.559Z,22.72
2019-04-30T10:08:32.359Z,22.44
2019-04-30T10:09:56.627Z,23.02
2019-04-30T10:11:06.553Z,22.92
2019-04-30T10:12:19.304Z,24.27
2019-04-30T10:13:29.251Z,23.32
2019-04-30T10:14:40.939Z,24.57
2019-04-30T10:15:52.677Z,24.01
2019-04-30T10:17:03.599Z,23.72
2019-04-30T10:18:14.584Z,20.93
2019-04-30T10:19:24.296Z,20.9
2019-04-30T10:20:34.545Z,22.74
2019-04-30T10:21:44.510Z,23.22
2019-04-30T10:22:56.254Z,22.25
2019-04-30T10:24:17.211Z,23.81
2019-04-30T10:25:27.369Z,22.85
2019-04-30T10:26:37.077Z,20.83
2019-04-30T10:27:46.848Z,21.8
2019-04-30T10:28:57.228Z,23.35
2019-04-30T10:30:09.152Z,21.91
2019-04-30T10:31:21.420Z,21.43
2019-04-30T10:32:32.526Z,20.85
2019-04-30T10:33:42.494Z,22.22
2019-04-30T10:34:53.599Z,21.16
2019-04-30T10:36:03.585Z,19.81
2019-04-30T10:37:14.658Z,19.71
2019-04-30T10:38:26.359Z,20.1
2019-04-30T10:39:38.738Z,19.82
2019-04-30T10:40:51.118Z,19.63
2019-04-30T10:42:01.663Z,19.32
2019-04-30T10:43:11.636Z,18.35
2019-04-30T10:44:22.678Z,18.93
2019-04-30T10:45:32.776Z,19.51
2019-04-30T10:46:44.163Z,20.39
2019-04-30T10:47:54.175Z,19.71
2019-04-30T10:49:04.305Z,19.63
2019-04-30T10:50:16.615Z,19.04
2019-04-30T10:51:26.325Z,17.88
2019-04-30T10:52:36.503Z,19.71
2019-04-30T10:53:48.574Z,19.13
2019-04-30T10:55:04.401Z,18.94
2019-04-30T10:56:14.842Z,19.52
2019-04-30T10:57:28.467Z,20.01
2019-04-30T10:58:38.319Z,17.1
2019-04-30T10:59:48.722Z,18.84
2019-04-30T11:00:59.481Z,17.68
2019-04-30T11:02:12.258Z,17.48
2019-04-30T11:03:25.470Z,17.55
2019-04-30T11:04:36.840Z,18.41
2019-04-30T11:05:48.687Z,20.32
2019-04-30T11:07:00.375Z,20.24
2019-04-30T11:08:11.551Z,19.56
2019-04-30T11:09:21.336Z,18.31
2019-04-30T11:10:33.718Z,20.16
2019-04-30T11:11:44.973Z,18.43
2019-04-30T11:12:57.341Z,18.71
2019-04-30T11:14:07.298Z,18.22
2019-04-30T11:15:20.480Z,18.32
2019-04-30T11:16:32.230Z,19.19
2019-04-30T11:17:42.568Z,17.54
2019-04-30T11:18:55.416Z,19.28
2019-04-30T11:20:07.236Z,18.9
2019-04-30T11:21:19.636Z,19.98
2019-04-30T11:22:32.768Z,17.66
2019-04-30T11:23:43.679Z,18.92
2019-04-30T11:25:02.674Z,18.43
2019-04-30T11:26:16.431Z,19.12
2019-04-30T11:27:30.698Z,18.35
2019-04-30T11:28:44.357Z,18.66
2019-04-30T11:30:01.338Z,16.72
2019-04-30T11:31:32.155Z,15.94
2019-04-30T11:32:43.391Z,15.74
2019-04-30T11:33:54.237Z,16.41
2019-04-30T11:35:03.984Z,18.35
2019-04-30T11:36:13.675Z,17.68
2019-04-30T11:37:24.636Z,15.84
2019-04-30T11:38:34.656Z,17.57
2019-04-30T11:39:46.427Z,17.38
2019-04-30T11:40:55.895Z,18.37
2019-04-30T11:42:06.106Z,19.64
2019-04-30T11:43:15.872Z,16.83
2019-04-30T11:44:33.434Z,16.05
2019-04-30T11:45:45.446Z,18.38
2019-04-30T11:46:55.465Z,17.22
2019-04-30T11:48:06.912Z,16.64
2019-04-30T11:49:16.881Z,15.97
2019-04-30T11:50:29.865Z,17.61
2019-04-30T11:51:41.638Z,16.64
2019-04-30T11:52:51.405Z,17.03
2019-04-30T11:54:33.451Z,15.58
2019-04-30T11:55:59.080Z,16.07
2019-04-30T11:57:11.240Z,16.85
2019-04-30T11:58:24.308Z,16.56
2019-04-30T11:59:39.527Z,16.08
2019-04-30T12:00:51.799Z,14.91
2019-04-30T12:02:02.157Z,15.69
2019-04-30T12:03:12.149Z,16.58
2019-04-30T12:04:22.254Z,15.12
2019-04-30T12:05:32.804Z,14.43
2019-04-30T12:06:43.937Z,14.73
2019-04-30T12:07:53.970Z,14.43
2019-04-30T12:09:04.797Z,14.43
2019-04-30T12:10:16.787Z,14.62
2019-04-30T12:11:27.128Z,16.96
2019-04-30T12:12:38.333Z,15.69
2019-04-30T12:13:48.866Z,15.78
2019-04-30T12:15:00.195Z,15.78
2019-04-30T12:16:14.060Z,14.32
2019-04-30T12:17:26.237Z,14.42
2019-04-30T12:18:35.966Z,15.19
2019-04-30T12:19:45.942Z,15.87
2019-04-30T12:20:56.274Z,16.07
2019-04-30T12:22:06.262Z,15.68
2019-04-30T12:23:15.980Z,15.78
2019-04-30T12:24:26.383Z,15.11
2019-04-30T12:25:38.744Z,14.23
2019-04-30T12:26:51.287Z,15.29
2019-04-30T12:28:02.093Z,15.48
2019-04-30T12:29:13.702Z,15.59
2019-04-30T12:30:24.432Z,15.4
2019-04-30T12:31:36.527Z,15.88
2019-04-30T12:32:46.011Z,15.6
2019-04-30T12:33:57.015Z,15.31
2019-04-30T12:35:07.001Z,14.73
2019-04-30T12:36:18.736Z,14.34
2019-04-30T12:37:29.068Z,14.93
2019-04-30T12:38:39.103Z,14.34
2019-04-30T12:39:49.438Z,13.76
2019-04-30T12:40:59.260Z,13.85
2019-04-30T12:42:11.155Z,15.22
2019-04-30T12:43:21.846Z,13.57
2019-04-30T12:44:31.572Z,12.4
2019-04-30T12:45:42.986Z,13.38
2019-04-30T12:47:09.647Z,12.99
2019-04-30T12:48:22.634Z,12.78
2019-04-30T12:49:34.780Z,12.58
2019-04-30T12:50:44.988Z,14.03
2019-04-30T12:51:58.551Z,14.91
2019-04-30T12:53:09.385Z,13.55
2019-04-30T12:54:18.931Z,13.64
2019-04-30T12:55:29.335Z,14.79
2019-04-30T12:56:39.442Z,14.9
2019-04-30T12:58:01.558Z,14.71
2019-04-30T12:59:12.515Z,13.06
2019-04-30T13:00:22.487Z,13.83
2019-04-30T13:01:36.684Z,14.89
2019-04-30T13:02:52.475Z,14.32
2019-04-30T13:04:03.968Z,13.24
2019-04-30T13:05:14.906Z,13.83
2019-04-30T13:06:27.486Z,13.34
2019-04-30T13:07:42.924Z,12.08
2019-04-30T13:08:59.771Z,13.54
2019-04-30T13:10:15.314Z,12.66
2019-04-30T13:11:30.599Z,12.18
2019-04-30T13:12:45.131Z,13.25
2019-04-30T13:14:00.021Z,14.42
2019-04-30T13:15:14.415Z,13.55
2019-04-30T13:16:23.895Z,13.74
2019-04-30T13:17:34.529Z,15.01
2019-04-30T13:18:44.501Z,14.04
2019-04-30T13:19:54.703Z,13.15
2019-04-30T13:21:04.570Z,13.75
2019-04-30T13:22:15.972Z,14.04
2019-04-30T13:23:26.596Z,13.74
2019-04-30T13:24:39.603Z,14.23
2019-04-30T13:25:53.754Z,14.81
2019-04-30T13:27:05.953Z,13.84
2019-04-30T13:28:16.872Z,16.09
2019-04-30T13:29:26.831Z,15.02
2019-04-30T13:30:36.301Z,13.65
2019-04-30T13:31:49.977Z,12.39
2019-04-30T13:33:01.531Z,11.51
2019-04-30T13:34:12.405Z,13.93
2019-04-30T13:35:23.989Z,14.53
2019-04-30T13:36:34.055Z,13.84
2019-04-30T13:37:46.049Z,15.11
2019-04-30T13:38:56.592Z,13.64
2019-04-30T13:40:06.931Z,15.29
2019-04-30T13:41:18.577Z,14.81
2019-04-30T13:42:29.331Z,14.91
2019-04-30T13:43:42.518Z,15.78
2019-04-30T13:44:53.951Z,15
2019-04-30T13:46:03.678Z,13.73
2019-04-30T13:47:13.920Z,13.53
2019-04-30T13:48:24.514Z,13.92
2019-04-30T13:49:34.234Z,13.04
2019-04-30T13:50:44.798Z,13.82
2019-04-30T13:51:54.791Z,14.11
2019-04-30T13:53:04.256Z,14.79
2019-04-30T13:54:16.263Z,13.43
2019-04-30T13:55:26.241Z,14.4
2019-04-30T13:56:51.802Z,14.69
2019-04-30T13:58:01.809Z,14.59
2019-04-30T13:59:11.780Z,13.62
2019-04-30T14:00:21.755Z,15.18
2019-04-30T14:01:32.641Z,15.86
2019-04-30T14:02:47.257Z,14.89
2019-04-30T14:03:58.982Z,14.69
2019-04-30T14:05:09.171Z,14.02
2019-04-30T14:06:19.149Z,14.98
2019-04-30T14:07:29.123Z,14.21
2019-04-30T14:08:41.217Z,13.23
2019-04-30T14:09:52.465Z,13.13
2019-04-30T14:11:02.538Z,12.93
2019-04-30T14:12:14.359Z,13.91
2019-04-30T14:13:24.363Z,13.22
2019-04-30T14:14:34.339Z,12.44
2019-04-30T14:15:44.562Z,13.21
2019-04-30T14:16:54.527Z,13.4
2019-04-30T14:18:09.321Z,13.59
2019-04-30T14:19:31.993Z,14.47
2019-04-30T14:20:41.977Z,13.78
2019-04-30T14:21:51.963Z,13.2
2019-04-30T14:23:01.868Z,15.22
2019-04-30T14:24:15.721Z,14.84
2019-04-30T14:25:26.913Z,15.51
2019-04-30T14:26:36.382Z,15.8
2019-04-30T14:27:55.003Z,14.92
2019-04-30T14:29:06.655Z,15.41
2019-04-30T14:30:16.622Z,15.7
2019-04-30T14:31:28.924Z,15.51
2019-04-30T14:32:39.591Z,15.99
2019-04-30T14:33:49.671Z,15.99
2019-04-30T14:35:01.335Z,16.76
2019-04-30T14:36:12.033Z,16.47
2019-04-30T14:37:22.319Z,16.17
2019-04-30T14:38:34.562Z,15.69
2019-04-30T14:39:48.788Z,16.76
2019-04-30T14:41:04.025Z,15.5
2019-04-30T14:42:20.479Z,15.89
2019-04-30T14:43:35.377Z,16.18
2019-04-30T14:44:54.330Z,15.69
2019-04-30T14:46:10.190Z,15.89
2019-04-30T14:47:25.927Z,15.79
2019-04-30T14:48:45.144Z,15.89
2019-04-30T14:50:09.690Z,15.31
2019-04-30T14:51:21.423Z,15.59
2019-04-30T14:52:31.788Z,16.28
2019-04-30T14:53:43.209Z,16.09
2019-04-30T14:54:54.289Z,16.19
2019-04-30T14:56:13.854Z,14.94
2019-04-30T14:57:24.951Z,15.81
2019-04-30T14:58:34.903Z,16.2
2019-04-30T14:59:48.539Z,15.33
2019-04-30T15:00:59.314Z,15.42
2019-04-30T15:02:11.290Z,16.39
2019-04-30T15:03:22.110Z,16.21
2019-04-30T15:04:32.417Z,15.33
2019-04-30T15:05:51.631Z,15.91
2019-04-30T15:07:01.907Z,15.91
2019-04-30T15:08:12.587Z,15.33
2019-04-30T15:09:24.639Z,15.52
2019-04-30T15:10:34.613Z,15.22
2019-04-30T15:11:44.587Z,16.67
2019-04-30T15:12:56.309Z,16.86
2019-04-30T15:14:08.180Z,15.51
2019-04-30T15:15:19.163Z,16.66
2019-04-30T15:16:29.261Z,16.96
2019-04-30T15:17:41.195Z,16.86
2019-04-30T15:18:51.993Z,16.86
2019-04-30T15:20:01.960Z,16.38
2019-04-30T15:21:13.989Z,16.28
2019-04-30T15:22:23.948Z,16.66
2019-04-30T15:23:34.385Z,17.24
2019-04-30T15:24:44.370Z,16.56
2019-04-30T15:25:54.513Z,17.44
2019-04-30T15:27:06.249Z,16.28
2019-04-30T15:28:16.680Z,16.56
2019-04-30T15:29:26.134Z,16.86
2019-04-30T15:30:38.678Z,16.86
2019-04-30T15:31:51.660Z,15.78
2019-04-30T15:33:02.253Z,15.89
2019-04-30T15:34:13.586Z,16.66
2019-04-30T15:35:24.313Z,16.27
2019-04-30T15:36:34.287Z,16.46
2019-04-30T15:37:44.359Z,15.39
2019-04-30T15:38:56.229Z,16.55
2019-04-30T15:40:05.941Z,16.36
2019-04-30T15:41:16.469Z,15.58
2019-04-30T15:42:26.441Z,16.64
2019-04-30T15:43:36.409Z,15.29
2019-04-30T15:44:49.618Z,15.68
2019-04-30T15:45:59.770Z,15.97
2019-04-30T15:47:11.502Z,15.19
2019-04-30T15:48:24.687Z,15.77
2019-04-30T15:49:34.776Z,15.67
2019-04-30T15:50:44.501Z,16.35